Time;durP1;ratioP1;P1;durP2;ratioP2;P2;SDS_P1;SDS_P2;PMS_P1;PMS_P2;Temp;Humidity;BMP_temperature;BMP_pressure;BME280_temperature;BME280_humidity;BME280_pressure;Samples;Min_cycle;Max_cycle;Signal;HPM_P1;HPM_P2
2021/06/05 00:01:51;;;;;;;4.40;4.00;;;22.30;80.10;;;;;;5019786;28;20208;-90
2021/06/05 00:04:19;;;;;;;5.03;4.63;;;22.20;79.40;;;;;;5035001;28;20165;-88
2021/06/05 00:06:46;;;;;;;6.80;4.60;;;22.20;81.20;;;;;;5034735;28;20209;-88
2021/06/05 00:09:13;;;;;;;4.57;4.20;;;22.30;80.20;;;;;;5035008;28;20216;-89
2021/06/05 00:11:39;;;;;;;4.40;4.00;;;22.20;80.30;;;;;;5034561;28;20203;-89
2021/06/05 00:14:08;;;;;;;4.97;4.10;;;22.40;79.00;;;;;;5036510;28;20252;-90
2021/06/05 00:16:39;;;;;;;4.90;4.50;;;22.40;78.10;;;;;;5036921;28;20188;-89
2021/06/05 00:19:05;;;;;;;5.05;4.35;;;22.50;78.40;;;;;;5037075;28;20219;-89
2021/06/05 00:21:32;;;;;;;4.75;4.22;;;22.40;78.80;;;;;;5037224;28;20236;-89
2021/06/05 00:23:58;;;;;;;4.97;4.55;;;22.30;78.10;;;;;;5038250;28;20188;-89
2021/06/05 00:26:25;;;;;;;4.50;4.20;;;22.10;79.40;;;;;;5036566;28;20818;-89
2021/06/05 00:28:51;;;;;;;7.03;4.68;;;21.90;79.40;;;;;;5037136;28;20632;-89
2021/06/05 00:31:17;;;;;;;5.97;4.03;;;21.80;80.40;;;;;;5035953;28;20199;-90
2021/06/05 00:33:43;;;;;;;4.53;4.13;;;21.60;81.10;;;;;;5036358;28;20178;-89
2021/06/05 00:36:12;;;;;;;4.68;4.28;;;21.30;82.10;;;;;;5037052;28;20625;-89
2021/06/05 00:38:39;;;;;;;4.60;4.20;;;21.10;82.40;;;;;;5036629;28;20188;-89
2021/06/05 00:41:07;;;;;;;5.00;4.45;;;20.70;85.00;;;;;;5036140;28;20195;-89
2021/06/05 00:43:39;;;;;;;6.80;4.00;;;20.80;85.00;;;;;;5036351;28;20725;-88
2021/06/05 00:46:05;;;;;;;4.85;4.45;;;20.70;84.70;;;;;;5036661;28;20236;-89
2021/06/05 00:48:31;;;;;;;7.03;4.50;;;20.50;85.00;;;;;;5018502;28;20732;-87
2021/06/05 00:50:57;;;;;;;5.50;4.18;;;20.50;85.40;;;;;;5018381;28;20225;-89
2021/06/05 00:53:25;;;;;;;4.30;3.90;;;20.30;86.30;;;;;;5036850;28;20173;-88
2021/06/05 00:55:54;;;;;;;4.85;3.72;;;20.30;86.50;;;;;;5018516;28;20220;-88
2021/06/05 00:58:22;;;;;;;4.22;3.75;;;20.10;85.70;;;;;;5017683;28;20187;-88
2021/06/05 01:00:57;;;;;;;3.90;3.38;;;19.80;86.50;;;;;;5036765;28;20184;-89
2021/06/05 01:03:24;;;;;;;3.75;3.45;;;19.80;86.90;;;;;;5019058;28;20160;-89
2021/06/05 01:05:56;;;;;;;5.97;3.28;;;19.80;86.80;;;;;;5018308;28;20294;-89
2021/06/05 01:08:50;;;;;;;4.35;3.10;;;19.70;85.60;;;;;;5018225;28;20172;-88
2021/06/05 01:11:42;;;;;;;4.43;3.20;;;19.70;86.40;;;;;;5036035;28;20192;-89
2021/06/05 01:14:25;;;;;;;4.07;3.13;;;19.70;85.10;;;;;;5018506;28;20173;-89
2021/06/05 01:16:56;;;;;;;3.28;2.83;;;19.80;84.70;;;;;;5017424;28;20180;-91
2021/06/05 01:19:46;;;;;;;4.80;3.08;;;19.90;85.00;;;;;;5017645;28;20237;-88
2021/06/05 01:22:27;;;;;;;4.90;3.20;;;19.80;84.60;;;;;;5017367;28;20699;-88
2021/06/05 01:25:46;;;;;;;3.45;2.80;;;19.80;83.90;;;;;;4999014;28;20231;-89
2021/06/05 01:28:20;;;;;;;2.97;2.70;;;19.90;84.40;;;;;;4918387;29;20204;-91
2021/06/05 01:30:50;;;;;;;3.08;2.70;;;20.00;83.80;;;;;;5012686;28;20196;-87
2021/06/05 01:33:19;;;;;;;3.47;3.17;;;20.00;83.70;;;;;;5001997;28;20189;-90
2021/06/05 01:35:45;;;;;;;3.17;2.88;;;20.30;83.10;;;;;;5001299;28;20192;-89
2021/06/05 01:38:14;;;;;;;3.70;2.70;;;20.50;82.40;;;;;;5018897;28;20268;-87
2021/06/05 01:40:41;;;;;;;4.38;3.03;;;20.50;81.60;;;;;;5035124;28;20193;-90
2021/06/05 01:43:09;;;;;;;3.33;2.92;;;20.60;82.00;;;;;;5018398;28;20274;-86
2021/06/05 01:45:38;;;;;;;4.15;2.97;;;20.70;81.50;;;;;;5036020;28;20206;-87
2021/06/05 01:48:06;;;;;;;3.00;2.70;;;20.70;81.30;;;;;;5018287;28;20196;-87
2021/06/05 01:50:35;;;;;;;3.45;2.90;;;20.50;82.00;;;;;;5018088;28;20693;-90
2021/06/05 01:53:18;;;;;;;2.75;2.55;;;20.60;82.50;;;;;;5017958;28;20194;-89
2021/06/05 01:55:58;;;;;;;4.20;2.95;;;20.60;82.00;;;;;;5001178;28;20191;-88
2021/06/05 01:58:29;;;;;;;3.60;3.00;;;20.50;81.70;;;;;;5035640;28;20162;-89
2021/06/05 02:00:57;;;;;;;3.28;2.70;;;20.50;82.60;;;;;;5017724;28;20587;-89
2021/06/05 02:03:23;;;;;;;3.40;2.75;;;20.40;83.00;;;;;;5035744;28;20228;-88
2021/06/05 02:05:49;;;;;;;3.33;3.03;;;20.30;82.30;;;;;;5017959;28;20180;-88
2021/06/05 02:08:20;;;;;;;3.75;2.88;;;20.20;82.40;;;;;;5017838;28;20677;-89
2021/06/05 02:10:46;;;;;;;3.55;3.20;;;20.20;83.60;;;;;;5035337;28;20162;-88
2021/06/05 02:13:19;;;;;;;3.30;2.85;;;20.10;83.20;;;;;;5035382;28;20176;-88
2021/06/05 02:15:51;;;;;;;5.07;3.20;;;20.20;82.80;;;;;;5041219;28;20535;-88
2021/06/05 02:18:27;;;;;;;3.97;2.88;;;20.30;83.30;;;;;;5042618;28;20211;-93
2021/06/05 02:20:55;;;;;;;6.03;3.33;;;20.40;82.90;;;;;;5051997;28;20209;-89
2021/06/05 02:23:31;;;;;;;3.15;2.95;;;20.60;82.60;;;;;;5042415;28;20183;-88
2021/06/05 02:26:01;;;;;;;3.25;2.88;;;20.60;82.30;;;;;;5041778;28;20211;-89
2021/06/05 02:28:28;;;;;;;4.80;3.13;;;20.60;82.00;;;;;;5041649;28;20172;-88
2021/06/05 02:30:55;;;;;;;3.33;3.03;;;20.60;82.00;;;;;;5041824;28;20189;-89
2021/06/05 02:33:21;;;;;;;3.28;2.97;;;20.50;81.80;;;;;;5041684;28;20225;-88
2021/06/05 02:35:48;;;;;;;4.55;3.35;;;20.30;83.10;;;;;;5041443;28;20189;-89
2021/06/05 02:38:17;;;;;;;3.55;3.08;;;20.30;83.30;;;;;;5041901;28;20178;-88
2021/06/05 02:40:43;;;;;;;3.45;3.10;;;20.20;84.60;;;;;;5041396;28;20179;-88
2021/06/05 02:43:14;;;;;;;3.47;3.17;;;19.90;84.60;;;;;;5022998;28;20181;-89
2021/06/05 02:45:51;;;;;;;4.78;3.47;;;19.90;84.90;;;;;;5041152;28;20196;-89
2021/06/05 02:48:17;;;;;;;3.60;3.30;;;19.80;85.30;;;;;;5041584;28;20172;-88
2021/06/05 02:50:51;;;;;;;3.95;3.55;;;19.70;85.60;;;;;;5002916;28;20684;-89
2021/06/05 02:53:17;;;;;;;4.07;3.28;;;19.70;85.90;;;;;;5022578;28;20158;-88
2021/06/05 02:55:45;;;;;;;3.90;3.55;;;19.60;85.90;;;;;;5021611;28;20244;-89
2021/06/05 02:58:13;;;;;;;4.55;3.78;;;19.60;86.60;;;;;;5003514;28;20679;-88
2021/06/05 03:00:49;;;;;;;4.05;3.65;;;19.40;87.70;;;;;;5020778;28;20232;-89
2021/06/05 03:03:17;;;;;;;4.65;3.65;;;19.50;87.60;;;;;;5031819;28;20234;-89
2021/06/05 03:05:42;;;;;;;4.75;3.83;;;19.40;87.20;;;;;;5023978;28;20211;-89
2021/06/05 03:08:12;;;;;;;7.97;3.97;;;19.40;87.40;;;;;;5041651;28;20185;-88
2021/06/05 03:10:38;;;;;;;3.58;3.20;;;19.40;87.50;;;;;;5024671;28;20169;-89
2021/06/05 03:13:05;;;;;;;4.55;4.10;;;19.40;87.50;;;;;;5041667;28;20230;-88
2021/06/05 03:15:32;;;;;;;5.88;3.75;;;19.50;86.60;;;;;;5042986;28;20256;-89
2021/06/05 03:17:58;;;;;;;5.35;3.45;;;19.60;86.20;;;;;;5057655;28;20184;-88
2021/06/05 03:20:35;;;;;;;3.85;3.40;;;19.60;86.50;;;;;;5052673;28;20768;-89
2021/06/05 03:23:01;;;;;;;3.85;3.05;;;19.80;86.10;;;;;;5039808;28;20212;-88
2021/06/05 03:25:27;;;;;;;4.40;4.00;;;19.90;85.00;;;;;;5022287;28;20235;-89
2021/06/05 03:27:53;;;;;;;3.85;3.45;;;20.00;84.30;;;;;;5036953;28;20201;-88
2021/06/05 03:30:19;;;;;;;7.25;3.80;;;20.10;84.20;;;;;;5020642;28;20551;-89
2021/06/05 03:32:45;;;;;;;7.35;3.70;;;20.20;83.70;;;;;;5020614;28;20209;-89
2021/06/05 03:35:12;;;;;;;5.53;3.60;;;20.20;83.40;;;;;;5036821;28;20588;-89
2021/06/05 03:37:38;;;;;;;3.83;3.42;;;20.20;83.40;;;;;;5038018;28;20684;-87
2021/06/05 03:40:07;;;;;;;4.13;3.28;;;20.20;83.10;;;;;;5036656;28;20186;-87
2021/06/05 03:42:33;;;;;;;4.25;3.08;;;20.20;82.70;;;;;;5037200;28;20215;-87
2021/06/05 03:44:58;;;;;;;5.93;3.70;;;20.20;82.50;;;;;;5038681;28;20192;-87
2021/06/05 03:47:25;;;;;;;4.55;4.07;;;20.20;82.50;;;;;;5037871;28;20706;-89
2021/06/05 03:49:52;;;;;;;5.03;3.33;;;20.30;82.40;;;;;;5037956;28;20172;-87
2021/06/05 03:52:22;;;;;;;5.55;3.83;;;20.30;81.60;;;;;;5038039;28;20196;-87
2021/06/05 03:54:50;;;;;;;6.45;4.40;;;20.40;82.20;;;;;;5020989;28;20183;-87
2021/06/05 03:57:15;;;;;;;7.05;3.67;;;20.30;82.10;;;;;;5013146;28;20711;-87
2021/06/05 03:59:41;;;;;;;5.68;3.60;;;20.20;82.40;;;;;;5000283;28;20191;-89
2021/06/05 04:02:07;;;;;;;4.40;3.47;;;20.30;82.40;;;;;;5018751;28;20208;-87
2021/06/05 04:04:32;;;;;;;3.83;3.50;;;20.30;82.10;;;;;;5038269;28;20180;-87
2021/06/05 04:06:58;;;;;;;4.38;3.38;;;20.20;81.90;;;;;;5037602;28;20274;-87
2021/06/05 04:09:24;;;;;;;8.15;3.90;;;20.20;82.20;;;;;;5020842;28;20192;-87
2021/06/05 04:11:49;;;;;;;3.70;3.42;;;20.20;82.60;;;;;;5036992;28;20211;-87
2021/06/05 04:14:15;;;;;;;4.53;4.20;;;20.30;82.50;;;;;;5010083;28;20191;-87
2021/06/05 04:16:41;;;;;;;3.85;3.50;;;20.30;82.50;;;;;;5001864;28;20687;-89
2021/06/05 04:19:07;;;;;;;4.55;3.95;;;20.40;82.00;;;;;;5018523;28;20184;-89
2021/06/05 04:21:32;;;;;;;4.40;3.85;;;20.30;82.00;;;;;;5000715;28;20212;-88
2021/06/05 04:23:58;;;;;;;4.53;3.88;;;20.10;82.60;;;;;;4998068;28;20184;-87
2021/06/05 04:26:24;;;;;;;3.67;3.38;;;19.90;83.80;;;;;;5013700;28;20341;-88
2021/06/05 04:28:50;;;;;;;6.20;3.60;;;19.90;83.90;;;;;;5002708;28;20188;-88
2021/06/05 04:31:16;;;;;;;4.07;3.67;;;20.00;83.20;;;;;;5035097;28;20215;-88
2021/06/05 04:33:42;;;;;;;3.88;3.58;;;20.20;82.60;;;;;;5039025;28;20184;-88
2021/06/05 04:36:12;;;;;;;5.05;4.00;;;20.20;82.60;;;;;;5038667;28;20216;-88
2021/06/05 04:38:39;;;;;;;5.25;4.00;;;20.30;82.70;;;;;;5034020;28;20238;-88
2021/06/05 04:41:07;;;;;;;4.38;3.97;;;20.30;83.00;;;;;;5016355;28;20243;-88
2021/06/05 04:43:33;;;;;;;3.97;3.67;;;20.50;81.90;;;;;;5019087;28;20249;-88
2021/06/05 04:46:00;;;;;;;4.65;4.20;;;20.50;82.10;;;;;;4999655;28;20233;-87
2021/06/05 04:48:26;;;;;;;4.55;4.00;;;20.40;82.50;;;;;;4999714;28;20181;-88
2021/06/05 04:50:52;;;;;;;4.90;4.15;;;20.20;83.80;;;;;;5016051;28;20564;-88
2021/06/05 04:53:18;;;;;;;5.38;3.80;;;20.10;84.90;;;;;;5016470;28;20174;-88
2021/06/05 04:55:44;;;;;;;4.40;3.90;;;19.90;85.50;;;;;;4999213;28;20189;-87
2021/06/05 04:58:11;;;;;;;5.18;3.90;;;19.80;86.20;;;;;;4999235;28;20181;-88
2021/06/05 05:00:45;;;;;;;6.65;4.93;;;19.70;87.50;;;;;;5003375;28;20182;-87
2021/06/05 05:03:13;;;;;;;4.72;4.32;;;19.60;88.00;;;;;;5036675;28;20167;-87
2021/06/05 05:05:39;;;;;;;4.60;4.15;;;19.60;88.00;;;;;;5032035;28;20209;-87
2021/06/05 05:08:07;;;;;;;4.65;4.25;;;19.60;88.30;;;;;;5016129;28;20208;-87
2021/06/05 05:10:36;;;;;;;4.32;3.83;;;19.60;89.20;;;;;;5015790;28;20178;-88
2021/06/05 05:13:03;;;;;;;6.20;4.32;;;19.50;89.40;;;;;;5016449;28;20182;-88
2021/06/05 05:15:30;;;;;;;4.47;4.07;;;19.40;88.60;;;;;;4997884;28;20216;-87
2021/06/05 05:17:56;;;;;;;5.05;3.92;;;19.40;89.10;;;;;;5016489;28;20189;-87
2021/06/05 05:20:33;;;;;;;5.07;4.30;;;19.40;89.80;;;;;;5015988;28;20271;-87
2021/06/05 05:23:00;;;;;;;4.43;3.97;;;19.40;89.60;;;;;;5038294;28;20199;-88
2021/06/05 05:25:26;;;;;;;4.47;3.70;;;19.40;89.70;;;;;;5036706;28;20664;-87
2021/06/05 05:27:52;;;;;;;4.00;3.42;;;19.40;89.70;;;;;;5036320;28;20208;-87
2021/06/05 05:30:26;;;;;;;3.80;3.40;;;19.40;88.90;;;;;;5043277;28;20181;-87
2021/06/05 05:32:51;;;;;;;3.90;3.60;;;19.40;89.60;;;;;;5025553;28;20212;-87
2021/06/05 05:35:17;;;;;;;3.35;3.05;;;19.30;89.30;;;;;;5017683;28;20190;-87
2021/06/05 05:37:44;;;;;;;4.10;3.53;;;19.40;89.20;;;;;;5035124;28;20183;-87
2021/06/05 05:40:24;;;;;;;5.00;3.42;;;19.50;88.70;;;;;;5035966;28;20353;-89
2021/06/05 05:42:50;;;;;;;5.85;3.47;;;19.40;89.00;;;;;;5035937;28;20284;-87
2021/06/05 05:45:16;;;;;;;4.03;3.25;;;19.40;89.10;;;;;;5034702;28;20219;-89
2021/06/05 05:47:42;;;;;;;5.55;3.55;;;19.40;89.20;;;;;;5035524;28;20246;-89
2021/06/05 05:50:11;;;;;;;5.38;3.67;;;19.30;90.00;;;;;;5016825;28;20177;-89
2021/06/05 05:52:36;;;;;;;8.38;3.65;;;19.30;89.60;;;;;;5017964;28;20204;-89
2021/06/05 05:55:04;;;;;;;6.72;3.70;;;19.30;88.80;;;;;;5018588;28;20283;-89
2021/06/05 05:57:30;;;;;;;4.03;3.28;;;19.30;89.90;;;;;;5035236;28;20191;-91
2021/06/05 05:59:55;;;;;;;4.95;3.22;;;19.20;89.50;;;;;;5035235;28;20187;-89
2021/06/05 06:02:21;;;;;;;4.53;3.47;;;19.40;89.30;;;;;;5035396;28;20276;-88
2021/06/05 06:04:47;;;;;;;3.63;3.33;;;19.50;89.30;;;;;;5019637;28;20264;-88
2021/06/05 06:07:12;;;;;;;4.18;3.47;;;19.40;90.10;;;;;;5022318;28;20200;-89
2021/06/05 06:09:38;;;;;;;4.00;3.60;;;19.50;89.90;;;;;;5037664;28;20240;-88
2021/06/05 06:12:04;;;;;;;5.13;3.60;;;19.60;89.70;;;;;;5037934;28;20204;-85
2021/06/05 06:14:30;;;;;;;4.82;3.78;;;19.50;89.60;;;;;;5004159;28;20639;-85
2021/06/05 06:16:56;;;;;;;4.60;3.63;;;19.50;89.80;;;;;;5023089;28;20216;-85
2021/06/05 06:19:22;;;;;;;5.85;3.70;;;19.60;90.00;;;;;;5023462;28;20185;-85
2021/06/05 06:21:48;;;;;;;4.07;3.65;;;19.60;90.20;;;;;;5031477;28;20258;-86
2021/06/05 06:24:17;;;;;;;4.20;3.83;;;19.70;90.30;;;;;;5038564;28;20622;-86
2021/06/05 06:26:43;;;;;;;4.78;3.72;;;19.80;90.20;;;;;;5022567;28;20220;-85
2021/06/05 06:31:38;;;;;;;4.70;4.30;;;19.80;89.90;;;;;;5036257;28;20294;-85
2021/06/05 06:34:04;;;;;;;5.00;4.13;;;19.80;89.80;;;;;;5040729;28;20181;-85
2021/06/05 06:36:29;;;;;;;4.40;4.00;;;19.90;88.90;;;;;;5024049;28;20210;-85
2021/06/05 06:38:55;;;;;;;5.13;4.10;;;20.00;88.70;;;;;;5039797;28;20219;-85
2021/06/05 06:41:26;;;;;;;4.85;3.90;;;19.90;88.90;;;;;;5040697;28;20861;-85
2021/06/05 06:43:54;;;;;;;5.55;4.20;;;19.90;89.80;;;;;;5028161;28;20664;-85
2021/06/05 06:46:34;;;;;;;4.82;4.32;;;19.90;89.10;;;;;;5023865;28;20235;-85
2021/06/05 06:49:02;;;;;;;5.68;4.38;;;20.00;87.90;;;;;;5026548;28;20204;-86
2021/06/05 06:51:30;;;;;;;4.97;4.15;;;20.00;90.50;;;;;;5049695;28;20188;-85
2021/06/05 06:53:55;;;;;;;5.75;4.32;;;20.10;88.00;;;;;;5041335;28;20196;-86
2021/06/05 06:56:22;;;;;;;4.43;4.03;;;20.20;87.80;;;;;;5019709;28;20190;-86
2021/06/05 06:58:48;;;;;;;6.63;4.50;;;20.20;88.70;;;;;;5023962;28;20213;-86
2021/06/05 07:01:15;;;;;;;4.18;3.78;;;20.10;88.50;;;;;;5026229;28;20248;-86
2021/06/05 07:03:41;;;;;;;9.30;4.10;;;20.10;88.80;;;;;;5037289;28;20184;-86
2021/06/05 07:06:07;;;;;;;9.40;4.10;;;20.20;88.10;;;;;;5027845;28;20434;-86
2021/06/05 07:08:35;;;;;;;4.10;3.80;;;20.20;86.80;;;;;;5035485;28;20193;-86
2021/06/05 07:11:08;;;;;;;6.32;4.03;;;20.20;86.60;;;;;;5041565;28;20193;-87
2021/06/05 07:13:34;;;;;;;6.20;4.28;;;20.10;88.40;;;;;;5038904;28;20184;-86
2021/06/05 07:16:00;;;;;;;5.72;4.07;;;20.20;87.80;;;;;;5017825;28;20248;-86
2021/06/05 07:18:29;;;;;;;5.68;4.18;;;20.40;85.90;;;;;;5032265;28;20180;-86
2021/06/05 07:20:56;;;;;;;4.18;3.78;;;20.40;86.30;;;;;;5033087;28;20220;-86
2021/06/05 07:23:26;;;;;;;5.55;4.28;;;20.40;85.50;;;;;;5035051;28;20220;-86
2021/06/05 07:25:53;;;;;;;4.68;4.28;;;20.40;86.10;;;;;;5031731;28;20184;-86
2021/06/05 07:28:23;;;;;;;5.32;4.00;;;20.40;85.90;;;;;;5046438;28;20189;-86
2021/06/05 07:30:50;;;;;;;4.55;4.15;;;20.30;86.30;;;;;;5044339;28;20207;-86
2021/06/05 07:33:17;;;;;;;6.28;3.88;;;20.20;86.40;;;;;;5026834;28;20188;-87
2021/06/05 07:35:43;;;;;;;4.40;4.00;;;20.20;87.10;;;;;;5026308;28;20196;-87
2021/06/05 07:38:11;;;;;;;5.28;3.70;;;20.20;87.60;;;;;;5011447;28;20206;-87
2021/06/05 07:40:37;;;;;;;6.10;4.35;;;20.40;87.70;;;;;;5024527;28;20232;-86
2021/06/05 07:43:03;;;;;;;4.22;3.70;;;20.50;85.30;;;;;;5025911;28;20173;-85
2021/06/05 07:45:29;;;;;;;6.43;3.80;;;20.40;85.60;;;;;;4991286;28;20202;-86
2021/06/05 07:47:55;;;;;;;5.78;4.40;;;20.50;85.50;;;;;;5039389;28;20557;-85
2021/06/05 07:50:21;;;;;;;5.97;4.00;;;20.60;84.60;;;;;;5044658;28;20212;-86
2021/06/05 07:52:48;;;;;;;4.43;3.63;;;20.70;85.10;;;;;;5025907;28;20247;-84
2021/06/05 07:55:14;;;;;;;4.68;4.28;;;20.70;83.90;;;;;;5046601;28;20181;-86
2021/06/05 07:57:39;;;;;;;5.32;4.38;;;20.70;85.20;;;;;;5027879;28;20207;-86
2021/06/05 08:00:13;;;;;;;4.38;3.88;;;20.50;85.90;;;;;;5028277;28;20182;-89
2021/06/05 08:02:39;;;;;;;5.05;3.55;;;20.40;86.70;;;;;;5029126;28;20208;-88
2021/06/05 08:05:07;;;;;;;5.10;4.70;;;20.40;86.90;;;;;;5045107;28;20211;-88
2021/06/05 08:07:33;;;;;;;4.78;4.38;;;20.50;86.80;;;;;;5028604;28;20205;-88
2021/06/05 08:09:58;;;;;;;4.70;4.30;;;20.50;85.20;;;;;;5047108;28;20212;-85
2021/06/05 08:12:24;;;;;;;5.55;4.75;;;20.60;84.80;;;;;;5022364;28;20213;-86
2021/06/05 08:14:50;;;;;;;6.18;4.90;;;20.70;85.00;;;;;;5022088;28;20178;-86
2021/06/05 08:17:16;;;;;;;4.88;4.38;;;20.80;84.40;;;;;;5039432;28;20187;-85
2021/06/05 08:19:42;;;;;;;4.93;4.35;;;20.90;84.00;;;;;;5039655;28;20177;-86
2021/06/05 08:22:08;;;;;;;5.30;4.80;;;21.10;83.10;;;;;;5041248;28;20250;-85
2021/06/05 08:24:35;;;;;;;5.30;4.80;;;21.20;82.10;;;;;;5050231;28;20264;-85
2021/06/05 08:27:01;;;;;;;5.07;4.68;;;21.40;82.50;;;;;;5022806;28;20256;-85
2021/06/05 08:29:26;;;;;;;5.80;4.45;;;21.30;82.00;;;;;;5004647;28;20740;-85
2021/06/05 08:31:52;;;;;;;5.57;5.15;;;21.40;81.80;;;;;;5018604;28;20217;-85
2021/06/05 08:34:19;;;;;;;5.22;4.68;;;21.30;82.20;;;;;;5022654;28;20624;-85
2021/06/05 08:36:45;;;;;;;4.85;4.47;;;21.50;81.20;;;;;;5024141;28;20183;-85
2021/06/05 08:39:13;;;;;;;5.88;4.38;;;21.40;80.80;;;;;;5033890;28;20801;-85
2021/06/05 08:41:50;;;;;;;4.97;4.65;;;21.50;80.90;;;;;;5034991;28;20211;-85
2021/06/05 08:44:36;;;;;;;5.75;4.75;;;21.40;81.50;;;;;;5037719;28;20187;-85
2021/06/05 08:47:12;;;;;;;5.60;4.70;;;21.40;80.60;;;;;;5036968;28;20211;-84
2021/06/05 08:49:41;;;;;;;5.30;4.82;;;21.50;81.70;;;;;;5022187;28;20221;-85
2021/06/05 08:52:31;;;;;;;5.75;5.25;;;21.40;80.90;;;;;;5023842;28;20209;-85
2021/06/05 08:55:18;;;;;;;6.15;5.50;;;21.40;83.10;;;;;;5022218;28;20702;-82
2021/06/05 08:57:49;;;;;;;8.32;5.28;;;21.50;81.70;;;;;;5040362;28;20576;-88
2021/06/05 09:00:37;;;;;;;5.47;4.90;;;21.60;82.30;;;;;;5021054;28;20176;-88
2021/06/05 09:03:07;;;;;;;5.65;5.05;;;21.80;80.20;;;;;;5022542;28;20191;-89
2021/06/05 09:05:36;;;;;;;8.32;4.63;;;22.00;79.60;;;;;;5040771;28;20188;-89
2021/06/05 09:08:03;;;;;;;5.18;4.78;;;21.80;78.80;;;;;;5040473;28;20304;-87
2021/06/05 09:10:30;;;;;;;5.88;4.97;;;21.80;79.60;;;;;;5040279;28;20169;-87
2021/06/05 09:12:56;;;;;;;6.15;5.18;;;22.00;78.70;;;;;;5040819;28;20191;-86
2021/06/05 09:15:31;;;;;;;4.88;4.47;;;22.10;78.10;;;;;;5022098;28;20198;-88
2021/06/05 09:18:00;;;;;;;5.60;4.70;;;22.30;77.80;;;;;;5037995;28;20177;-87
2021/06/05 09:20:31;;;;;;;5.07;4.65;;;22.40;76.70;;;;;;5039068;28;20213;-87
2021/06/05 09:22:56;;;;;;;5.80;5.40;;;22.50;76.60;;;;;;5038768;28;20216;-88
2021/06/05 09:25:52;;;;;;;8.43;5.90;;;22.30;77.40;;;;;;5024454;28;20212;-87
2021/06/05 09:28:21;;;;;;;5.60;5.10;;;22.50;76.60;;;;;;5028802;28;20201;-86
2021/06/05 09:30:50;;;;;;;5.60;4.80;;;22.70;75.90;;;;;;5043315;28;20177;-84
2021/06/05 09:33:30;;;;;;;6.07;5.28;;;22.80;76.20;;;;;;5043863;28;20257;-85
2021/06/05 09:36:23;;;;;;;5.80;5.20;;;22.90;74.20;;;;;;5010547;28;20277;-86
2021/06/05 09:39:06;;;;;;;5.20;4.80;;;23.00;73.40;;;;;;4999910;28;20177;-86
2021/06/05 09:41:34;;;;;;;5.05;4.30;;;23.00;73.10;;;;;;5015712;28;20204;-89
2021/06/05 09:44:21;;;;;;;6.88;4.78;;;23.10;73.90;;;;;;4997719;28;20232;-90
2021/06/05 09:47:22;;;;;;;6.20;5.60;;;23.20;71.90;;;;;;4999087;28;20209;-91
2021/06/05 09:49:58;;;;;;;6.15;5.22;;;22.90;75.00;;;;;;5021459;28;20189;-89
2021/06/05 09:52:31;;;;;;;4.90;4.50;;;23.10;74.10;;;;;;5019055;28;20197;-89
2021/06/05 09:55:08;;;;;;;7.05;4.82;;;23.20;72.70;;;;;;5004197;28;20169;-89
2021/06/05 09:57:34;;;;;;;5.13;4.65;;;23.40;69.80;;;;;;5005245;28;20177;-89
2021/06/05 10:00:09;;;;;;;6.07;4.50;;;23.70;71.00;;;;;;5022761;28;20188;-89
2021/06/05 10:02:37;;;;;;;4.10;3.78;;;23.70;69.00;;;;;;5026415;28;20187;-88
2021/06/05 10:05:36;;;;;;;4.93;4.00;;;23.90;69.60;;;;;;5029821;28;20188;-88
2021/06/05 10:08:26;;;;;;;5.00;4.50;;;23.50;70.20;;;;;;5006729;28;20259;-89
2021/06/05 10:11:04;;;;;;;5.68;4.30;;;23.70;69.90;;;;;;5019673;28;20211;-89
2021/06/05 10:13:35;;;;;;;5.25;4.65;;;23.70;69.20;;;;;;5038256;28;20255;-89
2021/06/05 10:16:16;;;;;;;4.70;3.80;;;23.70;70.50;;;;;;5037692;28;20177;-89
2021/06/05 10:18:51;;;;;;;4.28;3.80;;;23.60;71.90;;;;;;5025556;28;20170;-88
2021/06/05 10:21:22;;;;;;;4.00;3.60;;;23.50;70.90;;;;;;5020931;28;20197;-90
2021/06/05 10:23:54;;;;;;;5.45;3.83;;;23.20;73.10;;;;;;5020594;28;20169;-90
2021/06/05 10:26:38;;;;;;;4.47;4.07;;;23.20;72.10;;;;;;5021671;28;20197;-88
2021/06/05 10:29:15;;;;;;;4.00;3.70;;;23.00;73.60;;;;;;5025699;28;20548;-90
2021/06/05 10:31:42;;;;;;;6.38;3.70;;;23.00;73.70;;;;;;5025850;28;20255;-90
2021/06/05 10:34:14;;;;;;;4.28;3.60;;;23.00;74.30;;;;;;5027485;28;20181;-91
2021/06/05 10:36:42;;;;;;;7.25;3.97;;;22.60;75.40;;;;;;5049029;28;20250;-91
2021/06/05 10:39:32;;;;;;;3.90;3.40;;;22.80;76.70;;;;;;5049843;28;20195;-92
2021/06/05 10:42:21;;;;;;;4.25;3.90;;;23.00;74.60;;;;;;5030318;28;20208;-91
2021/06/05 10:44:46;;;;;;;5.60;4.13;;;23.10;73.10;;;;;;5030191;28;20184;-92
2021/06/05 10:47:30;;;;;;;4.20;3.80;;;23.00;74.50;;;;;;4995914;28;20695;-92
2021/06/05 10:50:14;;;;;;;4.88;3.88;;;23.00;73.60;;;;;;5011366;28;20264;-91
2021/06/05 10:52:55;;;;;;;4.47;3.72;;;23.10;73.70;;;;;;5011083;28;20841;-91
2021/06/05 10:55:33;;;;;;;5.22;3.95;;;23.20;71.00;;;;;;5029409;28;20291;-92
2021/06/05 10:58:08;;;;;;;3.70;3.40;;;23.50;71.50;;;;;;5028801;28;20177;-91
2021/06/05 11:00:42;;;;;;;4.20;3.90;;;23.60;69.50;;;;;;5024600;28;20165;-91
2021/06/05 11:03:31;;;;;;;4.85;4.18;;;23.50;71.10;;;;;;5031382;28;20240;-91
2021/06/05 11:06:08;;;;;;;4.47;4.07;;;23.50;70.50;;;;;;5011968;28;20190;-90
2021/06/05 11:08:44;;;;;;;3.78;3.47;;;23.60;72.50;;;;;;5012021;28;20189;-89
2021/06/05 11:11:29;;;;;;;3.80;3.50;;;23.60;70.20;;;;;;5027570;28;20221;-90
2021/06/05 11:13:54;;;;;;;3.50;3.20;;;23.70;69.60;;;;;;5029476;28;20177;-90
2021/06/05 11:16:22;;;;;;;3.50;3.17;;;23.80;70.10;;;;;;5010575;28;20193;-89
2021/06/05 11:18:53;;;;;;;3.88;3.13;;;24.00;70.00;;;;;;5028812;28;20188;-89
2021/06/05 11:21:22;;;;;;;4.28;3.33;;;24.10;68.80;;;;;;5010243;28;20201;-90
2021/06/05 11:23:57;;;;;;;3.05;2.85;;;24.10;67.50;;;;;;5020639;28;20643;-90
2021/06/05 11:26:35;;;;;;;4.10;3.30;;;24.00;68.90;;;;;;5047899;28;20204;-90
2021/06/05 11:29:22;;;;;;;3.58;3.28;;;23.90;70.20;;;;;;5032517;28;20653;-90
2021/06/05 11:32:06;;;;;;;5.03;3.10;;;23.90;70.30;;;;;;5028188;28;20197;-90
2021/06/05 11:34:38;;;;;;;3.08;2.83;;;23.80;71.70;;;;;;5046805;28;20604;-89
2021/06/05 11:37:06;;;;;;;4.03;2.95;;;23.60;70.90;;;;;;5029709;28;20188;-90
2021/06/05 11:39:32;;;;;;;3.00;2.75;;;23.70;71.10;;;;;;5046466;28;20276;-91
2021/06/05 11:42:18;;;;;;;2.97;2.70;;;23.90;71.30;;;;;;5048354;28;20231;-90
2021/06/05 11:44:47;;;;;;;3.58;2.95;;;23.70;70.10;;;;;;5020044;28;20710;-90
2021/06/05 11:47:15;;;;;;;3.47;3.17;;;23.80;71.40;;;;;;5046228;28;20255;-91
2021/06/05 11:49:41;;;;;;;3.45;3.15;;;24.50;68.00;;;;;;5050111;28;20208;-91
2021/06/05 11:52:31;;;;;;;3.00;2.75;;;25.10;67.80;;;;;;5030076;28;20204;-90
2021/06/05 11:55:06;;;;;;;3.10;2.90;;;25.70;64.40;;;;;;5038698;28;20173;-91
2021/06/05 11:57:43;;;;;;;3.47;3.17;;;25.40;63.20;;;;;;5047713;28;20665;-91
2021/06/05 12:00:32;;;;;;;2.80;2.55;;;25.10;65.20;;;;;;5047884;28;20148;-91
2021/06/05 12:03:08;;;;;;;1.88;1.80;;;24.70;62.90;;;;;;5045430;28;20200;-90
2021/06/05 12:05:40;;;;;;;2.05;1.85;;;24.20;63.90;;;;;;5047903;28;20165;-91
2021/06/05 12:08:28;;;;;;;1.98;1.80;;;23.90;66.20;;;;;;5048437;28;20223;-90
2021/06/05 12:10:55;;;;;;;1.90;1.80;;;23.30;68.10;;;;;;5046496;28;20205;-90
2021/06/05 12:13:33;;;;;;;1.50;1.40;;;23.00;68.50;;;;;;5048571;28;20655;-90
2021/06/05 12:16:29;;;;;;;2.20;2.00;;;22.80;68.90;;;;;;5030968;28;20181;-91
2021/06/05 12:18:54;;;;;;;2.30;1.90;;;22.50;70.60;;;;;;5012242;28;20204;-91
2021/06/05 12:21:36;;;;;;;4.28;2.15;;;22.30;73.00;;;;;;5048275;28;20211;-91
2021/06/05 12:24:32;;;;;;;3.88;2.00;;;22.00;76.70;;;;;;5027449;28;20182;-92
2021/06/05 12:27:01;;;;;;;7.03;3.13;;;21.50;83.70;;;;;;5011214;28;20214;-92
2021/06/05 12:29:33;;;;;;;4.88;2.67;;;20.90;86.80;;;;;;5007538;28;20184;-91
2021/06/05 12:32:31;;;;;;;5.20;2.47;;;20.40;88.60;;;;;;5023973;28;20220;-93
2021/06/05 12:34:57;;;;;;;4.43;2.40;;;20.20;90.50;;;;;;5026921;28;20216;-91
2021/06/05 12:37:29;;;;;;;5.53;2.35;;;20.20;89.50;;;;;;5027203;28;20193;-92
2021/06/05 12:39:56;;;;;;;3.63;2.30;;;20.40;89.70;;;;;;5041902;28;20157;-92
2021/06/05 12:42:35;;;;;;;3.50;2.60;;;20.40;88.20;;;;;;5040767;28;20193;-91
2021/06/05 12:45:08;;;;;;;2.88;2.10;;;20.30;90.20;;;;;;5039402;28;20188;-91
2021/06/05 12:47:40;;;;;;;2.20;2.00;;;20.30;89.50;;;;;;5028720;28;20211;-92
2021/06/05 12:50:11;;;;;;;3.03;2.00;;;20.30;91.50;;;;;;5021414;28;20173;-93
2021/06/05 12:52:41;;;;;;;2.20;2.10;;;20.50;89.40;;;;;;5023722;28;20212;-92
2021/06/05 12:55:24;;;;;;;3.38;2.20;;;20.70;90.10;;;;;;5008498;28;20201;-92
2021/06/05 12:57:54;;;;;;;2.17;2.08;;;20.80;87.60;;;;;;5027211;28;20207;-92
2021/06/05 13:00:28;;;;;;;2.63;2.42;;;20.80;90.00;;;;;;5026400;28;20193;-92
2021/06/05 13:03:08;;;;;;;3.15;2.30;;;20.60;89.90;;;;;;5026503;28;20196;-92
2021/06/05 13:05:36;;;;;;;3.78;2.72;;;20.50;92.70;;;;;;5025782;28;20324;-92
2021/06/05 13:08:20;;;;;;;2.72;2.42;;;20.70;92.50;;;;;;5026597;28;20216;-91
2021/06/05 13:10:53;;;;;;;2.72;2.50;;;20.70;91.60;;;;;;5013333;28;20178;-92